sensor_id;sensor_type;location;lat;lon;timestamp;pressure;altitude;pressure_sealevel;temperature;humidity
59531;BME280;45349;48.692;8.186;2023-07-22T00:01:59;149793.91;;;14.76;97.02
59531;BME280;45349;48.692;8.186;2023-07-22T00:04:26;149817.63;;;14.86;95.74
59531;BME280;45349;48.692;8.186;2023-07-22T00:06:52;149850.09;;;14.99;93.23
59531;BME280;45349;48.692;8.186;2023-07-22T00:09:19;149867.59;;;15.07;93.99
59531;BME280;45349;48.692;8.186;2023-07-22T00:11:52;149870.09;;;15.08;93.71
59531;BME280;45349;48.692;8.186;2023-07-22T00:14:20;149887.56;;;15.15;93.13
59531;BME280;45349;48.692;8.186;2023-07-22T00:16:52;149902.56;;;15.21;92.74
59531;BME280;45349;48.692;8.186;2023-07-22T00:19:18;149901.28;;;15.20;92.68
59531;BME280;45349;48.692;8.186;2023-07-22T00:21:52;149917.56;;;15.27;92.16
59531;BME280;45349;48.692;8.186;2023-07-22T00:24:18;149918.78;;;15.28;91.11
59531;BME280;45349;48.692;8.186;2023-07-22T00:26:52;149961.25;;;15.45;88.51
59531;BME280;45349;48.692;8.186;2023-07-22T00:29:21;149942.50;;;15.38;88.83
59531;BME280;45349;48.692;8.186;2023-07-22T00:31:52;149926.28;;;15.31;89.23
59531;BME280;45349;48.692;8.186;2023-07-22T00:34:18;149916.28;;;15.27;90.43
59531;BME280;45349;48.692;8.186;2023-07-22T00:36:49;149907.56;;;15.23;91.28
59531;BME280;45349;48.692;8.186;2023-07-22T00:39:16;149895.06;;;15.18;91.90
59531;BME280;45349;48.692;8.186;2023-07-22T00:41:43;149885.06;;;15.14;92.58
59531;BME280;45349;48.692;8.186;2023-07-22T00:44:11;149883.81;;;15.13;93.58
59531;BME280;45349;48.692;8.186;2023-07-22T00:46:40;149883.81;;;15.13;92.98
59531;BME280;45349;48.692;8.186;2023-07-22T00:49:07;149921.28;;;15.29;90.28
59531;BME280;45349;48.692;8.186;2023-07-22T00:51:34;149930.03;;;15.32;89.77
59531;BME280;45349;48.692;8.186;2023-07-22T00:54:00;149932.53;;;15.33;90.44
59531;BME280;45349;48.692;8.186;2023-07-22T00:56:31;149941.28;;;15.37;88.47
59531;BME280;45349;48.692;8.186;2023-07-22T00:58:59;149964.97;;;15.47;86.63
59531;BME280;45349;48.692;8.186;2023-07-22T01:01:27;149958.75;;;15.44;87.93
59531;BME280;45349;48.692;8.186;2023-07-22T01:03:55;149952.50;;;15.42;87.82
59531;BME280;45349;48.692;8.186;2023-07-22T01:06:22;149935.03;;;15.34;87.97
59531;BME280;45349;48.692;8.186;2023-07-22T01:08:49;149921.28;;;15.29;88.94
59531;BME280;45349;48.692;8.186;2023-07-22T01:11:16;149902.56;;;15.21;89.33
59531;BME280;45349;48.692;8.186;2023-07-22T01:13:43;149926.28;;;15.31;88.21
59531;BME280;45349;48.692;8.186;2023-07-22T01:16:09;149932.53;;;15.33;87.64
59531;BME280;45349;48.692;8.186;2023-07-22T01:18:36;149922.53;;;15.29;88.03
59531;BME280;45349;48.692;8.186;2023-07-22T01:21:06;149895.06;;;15.18;90.72
59531;BME280;45349;48.692;8.186;2023-07-22T01:23:34;149862.59;;;15.04;91.38
59531;BME280;45349;48.692;8.186;2023-07-22T01:26:01;149833.84;;;14.93;92.96
59531;BME280;45349;48.692;8.186;2023-07-22T01:28:28;149810.13;;;14.83;94.37
59531;BME280;45349;48.692;8.186;2023-07-22T01:30:55;149792.63;;;14.75;96.08
59531;BME280;45349;48.692;8.186;2023-07-22T01:33:22;149751.41;;;14.58;96.97
59531;BME280;45349;48.692;8.186;2023-07-22T01:35:48;149717.66;;;14.44;98.80
59531;BME280;45349;48.692;8.186;2023-07-22T01:38:15;149682.75;;;14.30;98.64
59531;BME280;45349;48.692;8.186;2023-07-22T01:40:43;149650.28;;;14.16;100.00
59531;BME280;45349;48.692;8.186;2023-07-22T01:43:10;149630.31;;;14.08;100.00
59531;BME280;45349;48.692;8.186;2023-07-22T01:45:36;149602.84;;;13.97;100.00
59531;BME280;45349;48.692;8.186;2023-07-22T01:48:04;149594.09;;;13.93;100.00
59531;BME280;45349;48.692;8.186;2023-07-22T01:50:31;149570.41;;;13.83;100.00
59531;BME280;45349;48.692;8.186;2023-07-22T01:52:58;149554.19;;;13.77;100.00
59531;BME280;45349;48.692;8.186;2023-07-22T01:55:24;149539.22;;;13.70;100.00
59531;BME280;45349;48.692;8.186;2023-07-22T01:57:53;149531.72;;;13.67;100.00
59531;BME280;45349;48.692;8.186;2023-07-22T02:00:20;149526.75;;;13.65;100.00
59531;BME280;45349;48.692;8.186;2023-07-22T02:02:47;149515.50;;;13.61;100.00
59531;BME280;45349;48.692;8.186;2023-07-22T02:05:13;149498.00;;;13.53;100.00
59531;BME280;45349;48.692;8.186;2023-07-22T02:07:40;149484.31;;;13.48;100.00
59531;BME280;45349;48.692;8.186;2023-07-22T02:10:07;149484.31;;;13.48;100.00
59531;BME280;45349;48.692;8.186;2023-07-22T02:12:35;149470.56;;;13.42;100.00
59531;BME280;45349;48.692;8.186;2023-07-22T02:15:03;149458.03;;;13.37;100.00
59531;BME280;45349;48.692;8.186;2023-07-22T02:17:30;149461.81;;;13.38;100.00
59531;BME280;45349;48.692;8.186;2023-07-22T02:19:57;149451.81;;;13.34;100.00
59531;BME280;45349;48.692;8.186;2023-07-22T02:22:23;149436.84;;;13.28;100.00
59531;BME280;45349;48.692;8.186;2023-07-22T02:24:50;149428.13;;;13.24;100.00
59531;BME280;45349;48.692;8.186;2023-07-22T02:27:16;149435.56;;;13.27;100.00
59531;BME280;45349;48.692;8.186;2023-07-22T02:29:43;149460.53;;;13.38;100.00
59531;BME280;45349;48.692;8.186;2023-07-22T02:32:11;149540.44;;;13.71;100.00
59531;BME280;45349;48.692;8.186;2023-07-22T02:34:38;149604.09;;;13.97;100.00
59531;BME280;45349;48.692;8.186;2023-07-22T02:37:04;149596.59;;;13.94;100.00
59531;BME280;45349;48.692;8.186;2023-07-22T02:39:31;149589.09;;;13.91;100.00
59531;BME280;45349;48.692;8.186;2023-07-22T02:41:59;149586.59;;;13.90;100.00
59531;BME280;45349;48.692;8.186;2023-07-22T02:44:26;149602.84;;;13.97;100.00
59531;BME280;45349;48.692;8.186;2023-07-22T02:46:52;149596.59;;;13.94;100.00
59531;BME280;45349;48.692;8.186;2023-07-22T02:49:20;149585.38;;;13.90;100.00
59531;BME280;45349;48.692;8.186;2023-07-22T02:51:52;149572.91;;;13.84;100.00
59531;BME280;45349;48.692;8.186;2023-07-22T02:54:18;149561.63;;;13.80;100.00
59531;BME280;45349;48.692;8.186;2023-07-22T02:57:10;149580.38;;;13.87;100.00
59531;BME280;45349;48.692;8.186;2023-07-22T02:59:37;149600.38;;;13.96;100.00
59531;BME280;45349;48.692;8.186;2023-07-22T03:02:04;149616.56;;;14.02;100.00
59531;BME280;45349;48.692;8.186;2023-07-22T03:04:32;149627.81;;;14.07;100.00
59531;BME280;45349;48.692;8.186;2023-07-22T03:06:58;149624.06;;;14.06;100.00
59531;BME280;45349;48.692;8.186;2023-07-22T03:09:25;149605.34;;;13.98;100.00
59531;BME280;45349;48.692;8.186;2023-07-22T03:11:52;149589.09;;;13.91;100.00
59531;BME280;45349;48.692;8.186;2023-07-22T03:14:18;149661.50;;;14.21;98.52
59531;BME280;45349;48.692;8.186;2023-07-22T03:16:52;149671.50;;;14.25;97.42
59531;BME280;45349;48.692;8.186;2023-07-22T03:19:19;149696.47;;;14.36;96.82
59531;BME280;45349;48.692;8.186;2023-07-22T03:21:53;149690.19;;;14.33;96.23
59531;BME280;45349;48.692;8.186;2023-07-22T03:24:20;149705.19;;;14.39;96.86
59531;BME280;45349;48.692;8.186;2023-07-22T03:26:52;149671.50;;;14.25;97.09
59531;BME280;45349;48.692;8.186;2023-07-22T03:29:18;149670.28;;;14.25;97.97
59531;BME280;45349;48.692;8.186;2023-07-22T03:31:49;149659.00;;;14.20;97.80
59531;BME280;45349;48.692;8.186;2023-07-22T03:34:16;149659.00;;;14.20;97.79
59531;BME280;45349;48.692;8.186;2023-07-22T03:36:42;149650.28;;;14.16;98.08
59531;BME280;45349;48.692;8.186;2023-07-22T03:39:10;149644.03;;;14.14;98.26
59531;BME280;45349;48.692;8.186;2023-07-22T03:41:37;149622.81;;;14.05;98.88
59531;BME280;45349;48.692;8.186;2023-07-22T03:44:03;149616.56;;;14.02;99.16
59531;BME280;45349;48.692;8.186;2023-07-22T03:46:30;149601.59;;;13.96;99.33
59531;BME280;45349;48.692;8.186;2023-07-22T03:48:57;149609.06;;;13.99;99.48
59531;BME280;45349;48.692;8.186;2023-07-22T03:51:23;149606.56;;;13.98;99.40
59531;BME280;45349;48.692;8.186;2023-07-22T03:53:50;149606.56;;;13.98;99.48
59531;BME280;45349;48.692;8.186;2023-07-22T03:56:18;149630.31;;;14.08;99.33
59531;BME280;45349;48.692;8.186;2023-07-22T03:58:44;149632.81;;;14.09;98.47
59531;BME280;45349;48.692;8.186;2023-07-22T04:01:11;149630.31;;;14.08;98.97
59531;BME280;45349;48.692;8.186;2023-07-22T04:03:37;149616.56;;;14.02;99.59
59531;BME280;45349;48.692;8.186;2023-07-22T04:06:04;149605.34;;;13.98;100.00
59531;BME280;45349;48.692;8.186;2023-07-22T04:08:31;149595.38;;;13.94;100.00
59531;BME280;45349;48.692;8.186;2023-07-22T04:10:58;149576.63;;;13.86;100.00
59531;BME280;45349;48.692;8.186;2023-07-22T04:13:26;149567.91;;;13.82;100.00
59531;BME280;45349;48.692;8.186;2023-07-22T04:15:53;149562.91;;;13.80;100.00
59531;BME280;45349;48.692;8.186;2023-07-22T04:18:20;149546.72;;;13.73;100.00
59531;BME280;45349;48.692;8.186;2023-07-22T04:20:47;149549.22;;;13.75;100.00
59531;BME280;45349;48.692;8.186;2023-07-22T04:23:14;149536.72;;;13.69;100.00
59531;BME280;45349;48.692;8.186;2023-07-22T04:25:41;149542.94;;;13.72;100.00
59531;BME280;45349;48.692;8.186;2023-07-22T04:28:08;149537.94;;;13.70;100.00
59531;BME280;45349;48.692;8.186;2023-07-22T04:30:37;149535.47;;;13.69;100.00
59531;BME280;45349;48.692;8.186;2023-07-22T04:33:05;149537.94;;;13.70;100.00
59531;BME280;45349;48.692;8.186;2023-07-22T04:35:37;149530.47;;;13.67;100.00
59531;BME280;45349;48.692;8.186;2023-07-22T04:38:04;149530.47;;;13.67;100.00
59531;BME280;45349;48.692;8.186;2023-07-22T04:40:30;149525.47;;;13.65;100.00
59531;BME280;45349;48.692;8.186;2023-07-22T04:42:57;149529.25;;;13.66;100.00
59531;BME280;45349;48.692;8.186;2023-07-22T04:45:24;149534.22;;;13.68;100.00
59531;BME280;45349;48.692;8.186;2023-07-22T04:47:52;149526.75;;;13.65;100.00
59531;BME280;45349;48.692;8.186;2023-07-22T04:50:18;149526.75;;;13.65;100.00
59531;BME280;45349;48.692;8.186;2023-07-22T04:52:46;149525.47;;;13.65;100.00
59531;BME280;45349;48.692;8.186;2023-07-22T04:55:14;149526.75;;;13.65;100.00
59531;BME280;45349;48.692;8.186;2023-07-22T04:57:41;149531.72;;;13.67;100.00
59531;BME280;45349;48.692;8.186;2023-07-22T05:00:11;149532.97;;;13.68;100.00
59531;BME280;45349;48.692;8.186;2023-07-22T05:02:40;149537.94;;;13.70;100.00
59531;BME280;45349;48.692;8.186;2023-07-22T05:05:08;149542.94;;;13.72;100.00
59531;BME280;45349;48.692;8.186;2023-07-22T05:07:35;149545.44;;;13.73;100.00
59531;BME280;45349;48.692;8.186;2023-07-22T05:10:02;149551.69;;;13.76;100.00
59531;BME280;45349;48.692;8.186;2023-07-22T05:12:29;149555.44;;;13.77;100.00
59531;BME280;45349;48.692;8.186;2023-07-22T05:14:55;149566.63;;;13.82;100.00
59531;BME280;45349;48.692;8.186;2023-07-22T05:17:22;149565.41;;;13.81;100.00
59531;BME280;45349;48.692;8.186;2023-07-22T05:19:48;149575.41;;;13.85;100.00
59531;BME280;45349;48.692;8.186;2023-07-22T05:22:16;149572.91;;;13.84;100.00
59531;BME280;45349;48.692;8.186;2023-07-22T05:24:43;149590.38;;;13.92;100.00
59531;BME280;45349;48.692;8.186;2023-07-22T05:27:09;149601.59;;;13.96;100.00
59531;BME280;45349;48.692;8.186;2023-07-22T05:29:36;149625.31;;;14.06;100.00
59531;BME280;45349;48.692;8.186;2023-07-22T05:32:03;149654.03;;;14.18;100.00
59531;BME280;45349;48.692;8.186;2023-07-22T05:34:30;149671.50;;;14.25;100.00
59531;BME280;45349;48.692;8.186;2023-07-22T05:36:57;149706.47;;;14.40;100.00
59531;BME280;45349;48.692;8.186;2023-07-22T05:39:24;149776.38;;;14.69;100.00
59531;BME280;45349;48.692;8.186;2023-07-22T05:41:52;149853.81;;;15.01;100.00
59531;BME280;45349;48.692;8.186;2023-07-22T05:44:19;149911.28;;;15.25;100.00
59531;BME280;45349;48.692;8.186;2023-07-22T05:47:10;149978.75;;;15.53;97.46
59531;BME280;45349;48.692;8.186;2023-07-22T05:49:37;150018.75;;;15.69;94.40
59531;BME280;45349;48.692;8.186;2023-07-22T05:52:04;150037.47;;;15.77;93.90
59531;BME280;45349;48.692;8.186;2023-07-22T05:54:32;150095.00;;;16.01;93.15
59531;BME280;45349;48.692;8.186;2023-07-22T05:56:59;150106.22;;;16.05;92.77
59531;BME280;45349;48.692;8.186;2023-07-22T05:59:25;150122.50;;;16.12;91.21
59531;BME280;45349;48.692;8.186;2023-07-22T06:01:52;150162.50;;;16.29;91.86
59531;BME280;45349;48.692;8.186;2023-07-22T06:04:18;150182.50;;;16.37;90.41
59531;BME280;45349;48.692;8.186;2023-07-22T06:06:52;150247.44;;;16.64;90.12
59531;BME280;45349;48.692;8.186;2023-07-22T06:09:19;150282.47;;;16.78;88.59
59531;BME280;45349;48.692;8.186;2023-07-22T06:11:53;150298.75;;;16.85;87.50
59531;BME280;45349;48.692;8.186;2023-07-22T06:14:20;150371.28;;;17.15;87.34
59531;BME280;45349;48.692;8.186;2023-07-22T06:16:52;150398.78;;;17.26;85.86
59531;BME280;45349;48.692;8.186;2023-07-22T06:19:18;150432.59;;;17.40;87.37
59531;BME280;45349;48.692;8.186;2023-07-22T06:22:11;150506.38;;;17.71;86.32
59531;BME280;45349;48.692;8.186;2023-07-22T06:24:37;150535.13;;;17.83;85.18
59531;BME280;45349;48.692;8.186;2023-07-22T06:27:05;150571.44;;;17.98;82.88
59531;BME280;45349;48.692;8.186;2023-07-22T06:29:32;150591.47;;;18.06;83.06
59531;BME280;45349;48.692;8.186;2023-07-22T06:31:58;150650.31;;;18.31;82.87
59531;BME280;45349;48.692;8.186;2023-07-22T06:34:25;150666.56;;;18.37;81.70
59531;BME280;45349;48.692;8.186;2023-07-22T06:36:52;150705.38;;;18.53;82.10
59531;BME280;45349;48.692;8.186;2023-07-22T06:39:18;150699.09;;;18.51;78.20
59531;BME280;45349;48.692;8.186;2023-07-22T06:42:12;150692.84;;;18.48;76.44
59531;BME280;45349;48.692;8.186;2023-07-22T06:44:38;150642.78;;;18.27;80.20
59531;BME280;45349;48.692;8.186;2023-07-22T06:47:05;150680.34;;;18.43;78.24
59531;BME280;45349;48.692;8.186;2023-07-22T06:49:32;150706.59;;;18.54;78.20
59531;BME280;45349;48.692;8.186;2023-07-22T06:51:59;150781.72;;;18.85;75.67
59531;BME280;45349;48.692;8.186;2023-07-22T06:54:27;150770.41;;;18.80;76.85
59531;BME280;45349;48.692;8.186;2023-07-22T06:56:53;150745.38;;;18.70;74.66
59531;BME280;45349;48.692;8.186;2023-07-22T06:59:21;150757.91;;;18.75;75.05
59531;BME280;45349;48.692;8.186;2023-07-22T07:01:52;150776.72;;;18.83;73.33
59531;BME280;45349;48.692;8.186;2023-07-22T07:04:18;150801.75;;;18.93;72.59
59531;BME280;45349;48.692;8.186;2023-07-22T07:07:12;150846.81;;;19.12;70.86
59531;BME280;45349;48.692;8.186;2023-07-22T07:09:39;150757.91;;;18.75;72.99
59531;BME280;45349;48.692;8.186;2023-07-22T07:12:06;150749.16;;;18.71;74.84
59531;BME280;45349;48.692;8.186;2023-07-22T07:14:35;150777.94;;;18.83;75.59
59531;BME280;45349;48.692;8.186;2023-07-22T07:17:02;150767.91;;;18.79;76.85
59531;BME280;45349;48.692;8.186;2023-07-22T07:19:29;150784.22;;;18.86;77.39
59531;BME280;45349;48.692;8.186;2023-07-22T07:21:55;150866.84;;;19.20;73.43
59531;BME280;45349;48.692;8.186;2023-07-22T07:24:22;150943.28;;;19.52;71.49
59531;BME280;45349;48.692;8.186;2023-07-22T07:26:52;151067.28;;;20.03;70.35
59531;BME280;45349;48.692;8.186;2023-07-22T07:29:18;151182.53;;;20.50;68.00
59531;BME280;45349;48.692;8.186;2023-07-22T07:31:53;151235.16;;;20.72;63.86
59531;BME280;45349;48.692;8.186;2023-07-22T07:34:20;151279.03;;;20.90;63.21
59531;BME280;45349;48.692;8.186;2023-07-22T07:36:52;151217.59;;;20.65;64.63
59531;BME280;45349;48.692;8.186;2023-07-22T07:39:18;151223.84;;;20.68;66.40
59531;BME280;45349;48.692;8.186;2023-07-22T07:41:45;151237.66;;;20.73;66.52
59531;BME280;45349;48.692;8.186;2023-07-22T07:44:11;151202.56;;;20.59;64.78
59531;BME280;45349;48.692;8.186;2023-07-22T07:46:38;151081.06;;;20.09;69.67
59531;BME280;45349;48.692;8.186;2023-07-22T07:49:06;151048.47;;;19.95;71.39
59531;BME280;45349;48.692;8.186;2023-07-22T07:51:32;151039.75;;;19.91;71.18
59531;BME280;45349;48.692;8.186;2023-07-22T07:53:59;151106.09;;;20.19;68.45
59531;BME280;45349;48.692;8.186;2023-07-22T07:56:26;151144.94;;;20.35;68.01
59531;BME280;45349;48.692;8.186;2023-07-22T07:58:53;151202.56;;;20.59;67.21
59531;BME280;45349;48.692;8.186;2023-07-22T08:01:20;151260.25;;;20.83;65.73
59531;BME280;45349;48.692;8.186;2023-07-22T08:03:47;151324.16;;;21.09;64.93
59531;BME280;45349;48.692;8.186;2023-07-22T08:06:15;151324.16;;;21.09;61.23
59531;BME280;45349;48.692;8.186;2023-07-22T08:08:42;151423.19;;;21.50;60.18
59531;BME280;45349;48.692;8.186;2023-07-22T08:11:10;151482.13;;;21.74;60.34
59531;BME280;45349;48.692;8.186;2023-07-22T08:13:39;151553.63;;;22.04;59.38
59531;BME280;45349;48.692;8.186;2023-07-22T08:16:07;151643.91;;;22.41;58.12
59531;BME280;45349;48.692;8.186;2023-07-22T08:18:35;151645.19;;;22.41;58.54
59531;BME280;45349;48.692;8.186;2023-07-22T08:21:02;151666.53;;;22.50;60.54
59531;BME280;45349;48.692;8.186;2023-07-22T08:23:31;151664.03;;;22.49;60.34
59531;BME280;45349;48.692;8.186;2023-07-22T08:25:57;151557.38;;;22.05;59.96
59531;BME280;45349;48.692;8.186;2023-07-22T08:28:24;151653.97;;;22.45;60.09
59531;BME280;45349;48.692;8.186;2023-07-22T08:30:54;151681.59;;;22.56;59.49
59531;BME280;45349;48.692;8.186;2023-07-22T08:33:21;151497.19;;;21.80;60.15
59531;BME280;45349;48.692;8.186;2023-07-22T08:35:48;151577.44;;;22.14;60.42
59531;BME280;45349;48.692;8.186;2023-07-22T08:38:15;151581.22;;;22.15;61.11
59531;BME280;45349;48.692;8.186;2023-07-22T08:40:43;151628.84;;;22.35;60.27
59531;BME280;45349;48.692;8.186;2023-07-22T08:43:10;151620.09;;;22.31;59.00
59531;BME280;45349;48.692;8.186;2023-07-22T08:45:38;151583.75;;;22.16;60.08
59531;BME280;45349;48.692;8.186;2023-07-22T08:48:07;151479.63;;;21.73;60.07
59531;BME280;45349;48.692;8.186;2023-07-22T08:50:41;151606.31;;;22.25;59.01
59531;BME280;45349;48.692;8.186;2023-07-22T08:53:10;151608.78;;;22.26;59.09
59531;BME280;45349;48.692;8.186;2023-07-22T08:55:37;151546.13;;;22.01;60.49
59531;BME280;45349;48.692;8.186;2023-07-22T08:58:07;151509.72;;;21.86;62.13
59531;BME280;45349;48.692;8.186;2023-07-22T09:00:35;151567.41;;;22.09;59.35
59531;BME280;45349;48.692;8.186;2023-07-22T09:03:02;151490.94;;;21.78;60.47
59531;BME280;45349;48.692;8.186;2023-07-22T09:05:31;151512.22;;;21.87;61.17
59531;BME280;45349;48.692;8.186;2023-07-22T09:07:58;151521.03;;;21.90;59.22
59531;BME280;45349;48.692;8.186;2023-07-22T09:10:26;151523.53;;;21.91;60.37
59531;BME280;45349;48.692;8.186;2023-07-22T09:12:54;151532.28;;;21.95;62.79
59531;BME280;45349;48.692;8.186;2023-07-22T09:15:22;151538.59;;;21.97;61.58
59531;BME280;45349;48.692;8.186;2023-07-22T09:17:49;151587.47;;;22.18;60.87
59531;BME280;45349;48.692;8.186;2023-07-22T09:20:16;151643.91;;;22.41;61.06
59531;BME280;45349;48.692;8.186;2023-07-22T09:22:43;151645.19;;;22.41;59.02
59531;BME280;45349;48.692;8.186;2023-07-22T09:25:15;151615.06;;;22.29;57.30
59531;BME280;45349;48.692;8.186;2023-07-22T09:27:42;151583.75;;;22.16;57.93
59531;BME280;45349;48.692;8.186;2023-07-22T09:30:22;151571.19;;;22.11;58.14
59531;BME280;45349;48.692;8.186;2023-07-22T09:32:49;151608.78;;;22.26;58.52
59531;BME280;45349;48.692;8.186;2023-07-22T09:35:17;151643.91;;;22.41;54.47
59531;BME280;45349;48.692;8.186;2023-07-22T09:37:44;151687.88;;;22.59;54.95
59531;BME280;45349;48.692;8.186;2023-07-22T09:40:15;151804.53;;;23.07;53.28
59531;BME280;45349;48.692;8.186;2023-07-22T09:42:44;151819.59;;;23.13;54.08
59531;BME280;45349;48.692;8.186;2023-07-22T09:45:11;151768.13;;;22.92;48.77
59531;BME280;45349;48.692;8.186;2023-07-22T09:50:14;151659.00;;;22.47;51.34
59531;BME280;45349;48.692;8.186;2023-07-22T09:52:44;151661.50;;;22.48;51.67
59531;BME280;45349;48.692;8.186;2023-07-22T09:55:11;151631.34;;;22.36;52.21
59531;BME280;45349;48.692;8.186;2023-07-22T09:57:40;151728.03;;;22.76;52.57
59531;BME280;45349;48.692;8.186;2023-07-22T10:00:10;151775.66;;;22.95;50.37
59531;BME280;45349;48.692;8.186;2023-07-22T10:02:40;151625.13;;;22.33;52.18
59531;BME280;45349;48.692;8.186;2023-07-22T10:05:12;151712.97;;;22.69;50.79
59531;BME280;45349;48.692;8.186;2023-07-22T10:07:41;151824.63;;;23.15;51.50
59531;BME280;45349;48.692;8.186;2023-07-22T10:10:10;151920.00;;;23.55;47.88
59531;BME280;45349;48.692;8.186;2023-07-22T10:12:38;151874.81;;;23.36;44.66
59531;BME280;45349;48.692;8.186;2023-07-22T10:15:06;151992.81;;;23.85;43.96
59531;BME280;45349;48.692;8.186;2023-07-22T10:17:34;151898.69;;;23.46;45.69
59531;BME280;45349;48.692;8.186;2023-07-22T10:20:02;152074.44;;;24.18;46.52
59531;BME280;45349;48.692;8.186;2023-07-22T10:22:34;152001.56;;;23.88;43.52
59531;BME280;45349;48.692;8.186;2023-07-22T10:25:01;151942.59;;;23.64;44.65
59531;BME280;45349;48.692;8.186;2023-07-22T10:27:30;151962.69;;;23.72;44.71
59531;BME280;45349;48.692;8.186;2023-07-22T10:29:59;151922.50;;;23.56;45.88
59531;BME280;45349;48.692;8.186;2023-07-22T10:32:31;151948.88;;;23.67;44.01
59531;BME280;45349;48.692;8.186;2023-07-22T10:34:58;152108.34;;;24.32;42.92
59531;BME280;45349;48.692;8.186;2023-07-22T10:37:29;152299.25;;;25.11;41.76
59531;BME280;45349;48.692;8.186;2023-07-22T10:40:00;152228.91;;;24.82;42.74
59531;BME280;45349;48.692;8.186;2023-07-22T10:42:27;152215.13;;;24.76;42.93
59531;BME280;45349;48.692;8.186;2023-07-22T10:45:00;152357.03;;;25.35;42.02
59531;BME280;45349;48.692;8.186;2023-07-22T10:47:33;152402.28;;;25.54;40.80
59531;BME280;45349;48.692;8.186;2023-07-22T10:50:08;152457.56;;;25.76;42.73
59531;BME280;45349;48.692;8.186;2023-07-22T10:52:40;152290.44;;;25.08;41.42
59531;BME280;45349;48.692;8.186;2023-07-22T10:55:16;152490.22;;;25.90;41.45
59531;BME280;45349;48.692;8.186;2023-07-22T10:57:50;152319.34;;;25.19;38.48
59531;BME280;45349;48.692;8.186;2023-07-22T11:00:18;152349.50;;;25.32;37.76
59531;BME280;45349;48.692;8.186;2023-07-22T11:02:47;152373.34;;;25.42;38.80
59531;BME280;45349;48.692;8.186;2023-07-22T11:05:47;152289.22;;;25.07;38.99
59531;BME280;45349;48.692;8.186;2023-07-22T11:08:14;152457.56;;;25.76;36.56
59531;BME280;45349;48.692;8.186;2023-07-22T11:10:53;152445.00;;;25.71;38.10
59531;BME280;45349;48.692;8.186;2023-07-22T11:13:27;152458.84;;;25.77;35.70
59531;BME280;45349;48.692;8.186;2023-07-22T11:15:57;152367.09;;;25.39;36.61
59531;BME280;45349;48.692;8.186;2023-07-22T11:18:35;152215.13;;;24.76;36.67
59531;BME280;45349;48.692;8.186;2023-07-22T11:21:07;152173.59;;;24.59;39.81
59531;BME280;45349;48.692;8.186;2023-07-22T11:23:34;152228.91;;;24.82;37.52
59531;BME280;45349;48.692;8.186;2023-07-22T11:26:02;152294.22;;;25.09;39.62
59531;BME280;45349;48.692;8.186;2023-07-22T11:28:30;152369.59;;;25.40;39.29
59531;BME280;45349;48.692;8.186;2023-07-22T11:30:56;152512.84;;;25.99;37.46
59531;BME280;45349;48.692;8.186;2023-07-22T11:33:24;152600.88;;;26.35;38.37
59531;BME280;45349;48.692;8.186;2023-07-22T11:35:51;152404.78;;;25.55;39.90
59531;BME280;45349;48.692;8.186;2023-07-22T11:38:18;152452.53;;;25.74;40.97
59531;BME280;45349;48.692;8.186;2023-07-22T11:40:45;152520.38;;;26.02;37.21
59531;BME280;45349;48.692;8.186;2023-07-22T11:43:14;152403.56;;;25.54;39.78
59531;BME280;45349;48.692;8.186;2023-07-22T11:45:40;152417.34;;;25.60;41.37
59531;BME280;45349;48.692;8.186;2023-07-22T11:48:11;152389.72;;;25.48;41.57
59531;BME280;45349;48.692;8.186;2023-07-22T11:50:38;152242.75;;;24.88;42.48
59531;BME280;45349;48.692;8.186;2023-07-22T11:53:04;152329.41;;;25.24;41.09
59531;BME280;45349;48.692;8.186;2023-07-22T11:55:34;152341.97;;;25.29;41.90
59531;BME280;45349;48.692;8.186;2023-07-22T11:58:01;152411.09;;;25.57;41.01
59531;BME280;45349;48.692;8.186;2023-07-22T12:00:30;152477.66;;;25.85;40.16
59531;BME280;45349;48.692;8.186;2023-07-22T12:02:56;152414.84;;;25.59;38.63
59531;BME280;45349;48.692;8.186;2023-07-22T12:05:24;152451.28;;;25.74;37.50
59531;BME280;45349;48.692;8.186;2023-07-22T12:07:51;152558.13;;;26.18;36.14
59531;BME280;45349;48.692;8.186;2023-07-22T12:10:17;152647.34;;;26.55;36.92
59531;BME280;45349;48.692;8.186;2023-07-22T12:12:45;152741.66;;;26.93;33.32
59531;BME280;45349;48.692;8.186;2023-07-22T12:15:15;152623.50;;;26.45;34.95
59531;BME280;45349;48.692;8.186;2023-07-22T12:17:47;152681.28;;;26.68;34.70
59531;BME280;45349;48.692;8.186;2023-07-22T12:20:15;152666.19;;;26.62;36.28
59531;BME280;45349;48.692;8.186;2023-07-22T12:22:42;152764.31;;;27.03;34.24
59531;BME280;45349;48.692;8.186;2023-07-22T12:25:09;152676.25;;;26.66;36.30
59531;BME280;45349;48.692;8.186;2023-07-22T12:27:36;152705.19;;;26.78;36.06
59531;BME280;45349;48.692;8.186;2023-07-22T12:30:03;152698.88;;;26.76;34.52
59531;BME280;45349;48.692;8.186;2023-07-22T12:32:31;152706.41;;;26.79;36.51
59531;BME280;45349;48.692;8.186;2023-07-22T12:34:58;152494.03;;;25.91;36.26
59531;BME280;45349;48.692;8.186;2023-07-22T12:37:25;152696.34;;;26.75;35.39
59531;BME280;45349;48.692;8.186;2023-07-22T12:39:52;152672.50;;;26.65;35.81
59531;BME280;45349;48.692;8.186;2023-07-22T12:42:18;152686.31;;;26.71;36.23
59531;BME280;45349;48.692;8.186;2023-07-22T12:44:45;152717.81;;;26.84;36.03
59531;BME280;45349;48.692;8.186;2023-07-22T12:47:12;152641.06;;;26.52;35.93
59531;BME280;45349;48.692;8.186;2023-07-22T12:49:38;152438.72;;;25.69;38.13
59531;BME280;45349;48.692;8.186;2023-07-22T12:52:06;152527.94;;;26.05;37.07
59531;BME280;45349;48.692;8.186;2023-07-22T12:54:34;152692.63;;;26.73;37.86
59531;BME280;45349;48.692;8.186;2023-07-22T12:57:01;152554.34;;;26.16;36.66